sensor_id;sensor_type;location;lat;lon;timestamp;P1;durP1;ratioP1;P2;durP2;ratioP2
2161;SDS011;1087;50.226;8.682;2022-11-20T00:00:39;13.77;;;11.50;;
2161;SDS011;1087;50.226;8.682;2022-11-20T00:03:05;17.70;;;12.43;;
2161;SDS011;1087;50.226;8.682;2022-11-20T00:05:32;17.27;;;13.30;;
2161;SDS011;1087;50.226;8.682;2022-11-20T00:07:58;16.30;;;12.20;;
2161;SDS011;1087;50.226;8.682;2022-11-20T00:10:23;18.90;;;12.20;;
2161;SDS011;1087;50.226;8.682;2022-11-20T00:12:49;15.87;;;12.20;;
2161;SDS011;1087;50.226;8.682;2022-11-20T00:15:14;18.47;;;13.67;;
2161;SDS011;1087;50.226;8.682;2022-11-20T00:17:40;15.20;;;12.73;;
2161;SDS011;1087;50.226;8.682;2022-11-20T00:20:05;17.37;;;12.63;;
2161;SDS011;1087;50.226;8.682;2022-11-20T00:22:31;17.30;;;11.70;;
2161;SDS011;1087;50.226;8.682;2022-11-20T00:24:57;17.80;;;13.83;;
2161;SDS011;1087;50.226;8.682;2022-11-20T00:27:22;17.23;;;13.00;;
2161;SDS011;1087;50.226;8.682;2022-11-20T00:29:48;16.67;;;13.07;;
2161;SDS011;1087;50.226;8.682;2022-11-20T00:32:14;18.30;;;13.40;;
2161;SDS011;1087;50.226;8.682;2022-11-20T00:34:39;17.97;;;13.10;;
2161;SDS011;1087;50.226;8.682;2022-11-20T00:37:05;15.80;;;12.60;;
2161;SDS011;1087;50.226;8.682;2022-11-20T00:39:30;16.83;;;12.00;;
2161;SDS011;1087;50.226;8.682;2022-11-20T00:41:56;17.03;;;12.13;;
2161;SDS011;1087;50.226;8.682;2022-11-20T00:44:21;15.90;;;12.50;;
2161;SDS011;1087;50.226;8.682;2022-11-20T00:46:47;14.47;;;12.97;;
2161;SDS011;1087;50.226;8.682;2022-11-20T00:49:12;17.10;;;12.90;;
2161;SDS011;1087;50.226;8.682;2022-11-20T00:51:38;14.30;;;12.53;;
2161;SDS011;1087;50.226;8.682;2022-11-20T00:54:03;18.20;;;13.90;;
2161;SDS011;1087;50.226;8.682;2022-11-20T00:56:29;17.03;;;13.10;;
2161;SDS011;1087;50.226;8.682;2022-11-20T00:58:54;15.43;;;12.03;;
2161;SDS011;1087;50.226;8.682;2022-11-20T01:01:24;19.67;;;13.20;;
2161;SDS011;1087;50.226;8.682;2022-11-20T01:03:51;17.27;;;12.40;;
2161;SDS011;1087;50.226;8.682;2022-11-20T01:06:19;16.30;;;12.27;;
2161;SDS011;1087;50.226;8.682;2022-11-20T01:08:50;16.70;;;12.50;;
2161;SDS011;1087;50.226;8.682;2022-11-20T01:11:18;14.00;;;11.67;;
2161;SDS011;1087;50.226;8.682;2022-11-20T01:13:46;17.97;;;12.30;;
2161;SDS011;1087;50.226;8.682;2022-11-20T01:16:14;16.93;;;12.40;;
2161;SDS011;1087;50.226;8.682;2022-11-20T01:18:42;15.27;;;12.93;;
2161;SDS011;1087;50.226;8.682;2022-11-20T01:21:10;16.53;;;12.23;;
2161;SDS011;1087;50.226;8.682;2022-11-20T01:23:38;14.30;;;11.80;;
2161;SDS011;1087;50.226;8.682;2022-11-20T01:26:06;15.20;;;11.20;;
2161;SDS011;1087;50.226;8.682;2022-11-20T01:28:34;14.03;;;11.07;;
2161;SDS011;1087;50.226;8.682;2022-11-20T01:31:00;15.33;;;11.70;;
2161;SDS011;1087;50.226;8.682;2022-11-20T01:33:26;17.90;;;12.10;;
2161;SDS011;1087;50.226;8.682;2022-11-20T01:35:53;19.10;;;12.93;;
2161;SDS011;1087;50.226;8.682;2022-11-20T01:38:27;15.10;;;13.17;;
2161;SDS011;1087;50.226;8.682;2022-11-20T01:40:56;16.03;;;13.30;;
2161;SDS011;1087;50.226;8.682;2022-11-20T01:43:21;16.63;;;12.67;;
2161;SDS011;1087;50.226;8.682;2022-11-20T01:51:23;17.17;;;13.10;;
2161;SDS011;1087;50.226;8.682;2022-11-20T01:53:58;19.90;;;12.23;;
2161;SDS011;1087;50.226;8.682;2022-11-20T01:56:37;15.70;;;12.60;;
2161;SDS011;1087;50.226;8.682;2022-11-20T01:59:06;17.33;;;13.03;;
2161;SDS011;1087;50.226;8.682;2022-11-20T02:01:33;18.50;;;13.37;;
2161;SDS011;1087;50.226;8.682;2022-11-20T02:03:59;17.33;;;13.30;;
2161;SDS011;1087;50.226;8.682;2022-11-20T02:06:27;18.30;;;14.20;;
2161;SDS011;1087;50.226;8.682;2022-11-20T02:08:55;16.77;;;12.67;;
2161;SDS011;1087;50.226;8.682;2022-11-20T02:11:21;18.33;;;13.80;;
2161;SDS011;1087;50.226;8.682;2022-11-20T02:13:46;18.73;;;14.00;;
2161;SDS011;1087;50.226;8.682;2022-11-20T02:18:44;16.33;;;12.47;;
2161;SDS011;1087;50.226;8.682;2022-11-20T02:24:01;16.73;;;12.90;;
2161;SDS011;1087;50.226;8.682;2022-11-20T02:26:29;16.80;;;13.40;;
2161;SDS011;1087;50.226;8.682;2022-11-20T02:28:57;18.57;;;14.20;;
2161;SDS011;1087;50.226;8.682;2022-11-20T02:31:24;18.23;;;13.87;;
2161;SDS011;1087;50.226;8.682;2022-11-20T02:33:56;17.07;;;13.83;;
2161;SDS011;1087;50.226;8.682;2022-11-20T02:36:22;18.47;;;13.67;;
2161;SDS011;1087;50.226;8.682;2022-11-20T02:38:51;20.83;;;14.80;;
2161;SDS011;1087;50.226;8.682;2022-11-20T02:41:17;17.73;;;14.13;;
2161;SDS011;1087;50.226;8.682;2022-11-20T02:43:42;19.47;;;13.87;;
2161;SDS011;1087;50.226;8.682;2022-11-20T02:46:08;19.80;;;14.80;;
2161;SDS011;1087;50.226;8.682;2022-11-20T02:48:34;15.60;;;13.33;;
2161;SDS011;1087;50.226;8.682;2022-11-20T02:51:00;18.10;;;12.97;;
2161;SDS011;1087;50.226;8.682;2022-11-20T02:53:26;15.33;;;12.27;;
2161;SDS011;1087;50.226;8.682;2022-11-20T02:55:51;19.73;;;13.70;;
2161;SDS011;1087;50.226;8.682;2022-11-20T02:58:17;16.70;;;13.03;;
2161;SDS011;1087;50.226;8.682;2022-11-20T03:00:42;18.17;;;13.40;;
2161;SDS011;1087;50.226;8.682;2022-11-20T03:03:08;16.97;;;12.63;;
2161;SDS011;1087;50.226;8.682;2022-11-20T03:05:33;18.47;;;12.33;;
2161;SDS011;1087;50.226;8.682;2022-11-20T03:07:59;16.83;;;12.10;;
2161;SDS011;1087;50.226;8.682;2022-11-20T03:10:24;15.17;;;11.00;;
2161;SDS011;1087;50.226;8.682;2022-11-20T03:12:53;15.10;;;11.90;;
2161;SDS011;1087;50.226;8.682;2022-11-20T03:15:20;18.17;;;12.70;;
2161;SDS011;1087;50.226;8.682;2022-11-20T03:17:46;14.00;;;12.50;;
2161;SDS011;1087;50.226;8.682;2022-11-20T03:20:12;14.57;;;11.97;;
2161;SDS011;1087;50.226;8.682;2022-11-20T03:22:37;16.53;;;12.43;;
2161;SDS011;1087;50.226;8.682;2022-11-20T03:25:03;17.40;;;12.73;;
2161;SDS011;1087;50.226;8.682;2022-11-20T03:27:31;19.13;;;12.47;;
2161;SDS011;1087;50.226;8.682;2022-11-20T03:29:59;18.47;;;14.23;;
2161;SDS011;1087;50.226;8.682;2022-11-20T03:32:24;16.97;;;13.23;;
2161;SDS011;1087;50.226;8.682;2022-11-20T03:34:50;18.00;;;12.97;;
2161;SDS011;1087;50.226;8.682;2022-11-20T03:37:15;17.10;;;12.57;;
2161;SDS011;1087;50.226;8.682;2022-11-20T03:39:41;19.10;;;13.40;;
2161;SDS011;1087;50.226;8.682;2022-11-20T03:42:06;17.90;;;13.80;;
2161;SDS011;1087;50.226;8.682;2022-11-20T03:44:52;18.07;;;13.50;;
2161;SDS011;1087;50.226;8.682;2022-11-20T03:47:18;20.57;;;14.93;;
2161;SDS011;1087;50.226;8.682;2022-11-20T03:49:43;18.00;;;12.87;;
2161;SDS011;1087;50.226;8.682;2022-11-20T03:52:09;22.27;;;13.63;;
2161;SDS011;1087;50.226;8.682;2022-11-20T03:54:34;16.77;;;14.50;;
2161;SDS011;1087;50.226;8.682;2022-11-20T03:57:00;19.23;;;14.03;;
2161;SDS011;1087;50.226;8.682;2022-11-20T03:59:25;16.80;;;12.63;;
2161;SDS011;1087;50.226;8.682;2022-11-20T04:01:51;19.07;;;13.73;;
2161;SDS011;1087;50.226;8.682;2022-11-20T04:04:16;19.60;;;13.13;;
2161;SDS011;1087;50.226;8.682;2022-11-20T04:06:42;16.90;;;12.77;;
2161;SDS011;1087;50.226;8.682;2022-11-20T04:09:07;20.40;;;13.80;;
2161;SDS011;1087;50.226;8.682;2022-11-20T04:11:34;17.83;;;13.37;;
2161;SDS011;1087;50.226;8.682;2022-11-20T04:14:02;19.77;;;13.63;;
2161;SDS011;1087;50.226;8.682;2022-11-20T04:16:30;16.60;;;12.83;;
2161;SDS011;1087;50.226;8.682;2022-11-20T04:18:59;17.93;;;14.10;;
2161;SDS011;1087;50.226;8.682;2022-11-20T04:21:25;16.00;;;13.03;;
2161;SDS011;1087;50.226;8.682;2022-11-20T04:23:52;18.27;;;13.97;;
2161;SDS011;1087;50.226;8.682;2022-11-20T04:26:18;17.00;;;12.70;;
2161;SDS011;1087;50.226;8.682;2022-11-20T04:28:44;17.17;;;12.93;;
2161;SDS011;1087;50.226;8.682;2022-11-20T04:31:12;20.10;;;14.20;;
2161;SDS011;1087;50.226;8.682;2022-11-20T04:33:39;19.00;;;13.37;;
2161;SDS011;1087;50.226;8.682;2022-11-20T04:36:06;19.00;;;13.73;;
2161;SDS011;1087;50.226;8.682;2022-11-20T04:38:33;18.87;;;13.10;;
2161;SDS011;1087;50.226;8.682;2022-11-20T04:40:59;19.00;;;12.10;;
2161;SDS011;1087;50.226;8.682;2022-11-20T04:43:26;17.67;;;12.80;;
2161;SDS011;1087;50.226;8.682;2022-11-20T04:45:55;19.07;;;13.70;;
2161;SDS011;1087;50.226;8.682;2022-11-20T04:48:22;18.67;;;13.30;;
2161;SDS011;1087;50.226;8.682;2022-11-20T04:50:48;16.50;;;13.17;;
2161;SDS011;1087;50.226;8.682;2022-11-20T04:53:14;15.43;;;12.63;;
2161;SDS011;1087;50.226;8.682;2022-11-20T04:55:39;17.90;;;14.10;;
2161;SDS011;1087;50.226;8.682;2022-11-20T04:58:05;21.37;;;14.47;;
2161;SDS011;1087;50.226;8.682;2022-11-20T05:00:31;18.40;;;13.00;;
2161;SDS011;1087;50.226;8.682;2022-11-20T05:02:56;18.37;;;15.07;;
2161;SDS011;1087;50.226;8.682;2022-11-20T05:05:22;16.40;;;12.50;;
2161;SDS011;1087;50.226;8.682;2022-11-20T05:07:47;15.00;;;12.57;;
2161;SDS011;1087;50.226;8.682;2022-11-20T05:10:13;17.63;;;13.43;;
2161;SDS011;1087;50.226;8.682;2022-11-20T05:12:39;16.43;;;12.10;;
2161;SDS011;1087;50.226;8.682;2022-11-20T05:15:04;17.70;;;12.67;;
2161;SDS011;1087;50.226;8.682;2022-11-20T05:17:30;17.57;;;13.07;;
2161;SDS011;1087;50.226;8.682;2022-11-20T05:19:55;15.90;;;12.47;;
2161;SDS011;1087;50.226;8.682;2022-11-20T05:22:21;15.90;;;13.47;;
2161;SDS011;1087;50.226;8.682;2022-11-20T05:24:47;18.53;;;13.03;;
2161;SDS011;1087;50.226;8.682;2022-11-20T05:27:12;20.90;;;13.57;;
2161;SDS011;1087;50.226;8.682;2022-11-20T05:29:38;19.60;;;13.13;;
2161;SDS011;1087;50.226;8.682;2022-11-20T05:32:03;17.30;;;12.27;;
2161;SDS011;1087;50.226;8.682;2022-11-20T05:34:30;17.70;;;12.17;;
2161;SDS011;1087;50.226;8.682;2022-11-20T05:36:56;17.63;;;13.97;;
2161;SDS011;1087;50.226;8.682;2022-11-20T05:39:22;19.33;;;13.57;;
2161;SDS011;1087;50.226;8.682;2022-11-20T05:41:47;16.57;;;13.40;;
2161;SDS011;1087;50.226;8.682;2022-11-20T05:44:32;18.63;;;13.63;;
2161;SDS011;1087;50.226;8.682;2022-11-20T05:46:58;15.13;;;12.13;;
2161;SDS011;1087;50.226;8.682;2022-11-20T05:49:23;18.60;;;13.00;;
2161;SDS011;1087;50.226;8.682;2022-11-20T05:51:49;18.87;;;12.53;;
2161;SDS011;1087;50.226;8.682;2022-11-20T05:54:14;17.40;;;13.60;;
2161;SDS011;1087;50.226;8.682;2022-11-20T05:56:40;19.37;;;13.97;;
2161;SDS011;1087;50.226;8.682;2022-11-20T05:59:05;18.70;;;13.60;;
2161;SDS011;1087;50.226;8.682;2022-11-20T06:01:31;17.10;;;13.10;;
2161;SDS011;1087;50.226;8.682;2022-11-20T06:03:56;19.90;;;12.53;;
2161;SDS011;1087;50.226;8.682;2022-11-20T06:06:22;18.40;;;13.30;;
2161;SDS011;1087;50.226;8.682;2022-11-20T06:08:47;18.23;;;13.73;;
2161;SDS011;1087;50.226;8.682;2022-11-20T06:11:13;18.80;;;14.57;;
2161;SDS011;1087;50.226;8.682;2022-11-20T06:13:40;17.57;;;12.67;;
2161;SDS011;1087;50.226;8.682;2022-11-20T06:16:06;22.20;;;15.30;;
2161;SDS011;1087;50.226;8.682;2022-11-20T06:18:31;18.70;;;14.00;;
2161;SDS011;1087;50.226;8.682;2022-11-20T06:21:04;19.63;;;13.70;;
2161;SDS011;1087;50.226;8.682;2022-11-20T06:23:32;18.37;;;13.80;;
2161;SDS011;1087;50.226;8.682;2022-11-20T06:26:05;22.87;;;15.97;;
2161;SDS011;1087;50.226;8.682;2022-11-20T06:28:33;18.57;;;13.40;;
2161;SDS011;1087;50.226;8.682;2022-11-20T06:30:58;22.70;;;17.17;;
2161;SDS011;1087;50.226;8.682;2022-11-20T06:33:24;22.03;;;14.10;;
2161;SDS011;1087;50.226;8.682;2022-11-20T06:35:50;20.70;;;15.07;;
2161;SDS011;1087;50.226;8.682;2022-11-20T06:38:15;23.73;;;15.90;;
2161;SDS011;1087;50.226;8.682;2022-11-20T06:40:41;26.40;;;17.50;;
2161;SDS011;1087;50.226;8.682;2022-11-20T06:43:07;21.80;;;17.60;;
2161;SDS011;1087;50.226;8.682;2022-11-20T06:45:36;25.27;;;17.57;;
2161;SDS011;1087;50.226;8.682;2022-11-20T06:48:02;22.50;;;15.40;;
2161;SDS011;1087;50.226;8.682;2022-11-20T06:50:28;24.37;;;16.80;;
2161;SDS011;1087;50.226;8.682;2022-11-20T06:52:53;27.53;;;18.07;;
2161;SDS011;1087;50.226;8.682;2022-11-20T06:55:19;23.37;;;17.17;;
2161;SDS011;1087;50.226;8.682;2022-11-20T06:57:44;28.67;;;17.80;;
2161;SDS011;1087;50.226;8.682;2022-11-20T07:00:10;29.40;;;18.07;;
2161;SDS011;1087;50.226;8.682;2022-11-20T07:02:38;25.30;;;17.80;;
2161;SDS011;1087;50.226;8.682;2022-11-20T07:05:04;23.27;;;16.00;;
2161;SDS011;1087;50.226;8.682;2022-11-20T07:07:29;21.73;;;16.73;;
2161;SDS011;1087;50.226;8.682;2022-11-20T07:09:55;24.83;;;18.40;;
2161;SDS011;1087;50.226;8.682;2022-11-20T07:12:20;25.03;;;16.03;;
2161;SDS011;1087;50.226;8.682;2022-11-20T07:14:46;25.50;;;16.37;;
2161;SDS011;1087;50.226;8.682;2022-11-20T07:17:12;24.13;;;16.70;;
2161;SDS011;1087;50.226;8.682;2022-11-20T07:19:37;24.17;;;18.23;;
2161;SDS011;1087;50.226;8.682;2022-11-20T07:22:03;29.73;;;16.77;;
2161;SDS011;1087;50.226;8.682;2022-11-20T07:24:29;28.70;;;17.37;;
2161;SDS011;1087;50.226;8.682;2022-11-20T07:26:55;31.57;;;20.90;;
2161;SDS011;1087;50.226;8.682;2022-11-20T07:29:20;29.60;;;19.30;;
2161;SDS011;1087;50.226;8.682;2022-11-20T07:31:46;30.90;;;20.10;;
2161;SDS011;1087;50.226;8.682;2022-11-20T07:34:11;35.63;;;19.03;;
2161;SDS011;1087;50.226;8.682;2022-11-20T07:36:37;25.97;;;18.10;;
2161;SDS011;1087;50.226;8.682;2022-11-20T07:39:02;26.73;;;17.70;;
2161;SDS011;1087;50.226;8.682;2022-11-20T07:41:28;32.20;;;19.77;;
2161;SDS011;1087;50.226;8.682;2022-11-20T07:43:54;30.10;;;19.73;;
2161;SDS011;1087;50.226;8.682;2022-11-20T07:46:19;27.83;;;18.87;;
2161;SDS011;1087;50.226;8.682;2022-11-20T07:48:45;35.70;;;19.87;;
2161;SDS011;1087;50.226;8.682;2022-11-20T07:51:10;29.63;;;19.47;;
2161;SDS011;1087;50.226;8.682;2022-11-20T07:53:36;37.87;;;20.30;;
2161;SDS011;1087;50.226;8.682;2022-11-20T07:56:01;32.27;;;20.30;;
2161;SDS011;1087;50.226;8.682;2022-11-20T07:58:31;29.80;;;19.47;;
2161;SDS011;1087;50.226;8.682;2022-11-20T08:00:58;32.80;;;18.83;;
2161;SDS011;1087;50.226;8.682;2022-11-20T08:03:28;33.07;;;19.37;;
2161;SDS011;1087;50.226;8.682;2022-11-20T08:05:53;33.47;;;20.90;;
2161;SDS011;1087;50.226;8.682;2022-11-20T08:08:19;31.10;;;19.33;;
2161;SDS011;1087;50.226;8.682;2022-11-20T08:10:45;34.33;;;20.60;;
2161;SDS011;1087;50.226;8.682;2022-11-20T08:13:11;32.67;;;21.20;;
2161;SDS011;1087;50.226;8.682;2022-11-20T08:15:55;34.23;;;21.60;;
2161;SDS011;1087;50.226;8.682;2022-11-20T08:18:20;34.67;;;22.20;;
2161;SDS011;1087;50.226;8.682;2022-11-20T08:20:46;43.73;;;23.00;;
2161;SDS011;1087;50.226;8.682;2022-11-20T08:23:11;41.20;;;22.67;;
2161;SDS011;1087;50.226;8.682;2022-11-20T08:25:37;40.13;;;22.97;;
2161;SDS011;1087;50.226;8.682;2022-11-20T08:28:07;36.73;;;21.97;;
2161;SDS011;1087;50.226;8.682;2022-11-20T08:30:35;39.40;;;21.37;;
2161;SDS011;1087;50.226;8.682;2022-11-20T08:33:02;44.30;;;22.60;;
2161;SDS011;1087;50.226;8.682;2022-11-20T08:35:32;39.40;;;22.27;;
2161;SDS011;1087;50.226;8.682;2022-11-20T08:37:59;40.07;;;20.80;;
2161;SDS011;1087;50.226;8.682;2022-11-20T08:40:25;42.23;;;23.40;;
2161;SDS011;1087;50.226;8.682;2022-11-20T08:42:51;42.07;;;21.70;;
2161;SDS011;1087;50.226;8.682;2022-11-20T08:45:17;37.70;;;22.17;;
2161;SDS011;1087;50.226;8.682;2022-11-20T08:47:43;37.70;;;21.57;;
2161;SDS011;1087;50.226;8.682;2022-11-20T08:50:10;50.80;;;25.33;;
2161;SDS011;1087;50.226;8.682;2022-11-20T08:52:37;45.10;;;24.17;;
2161;SDS011;1087;50.226;8.682;2022-11-20T08:55:03;42.13;;;22.70;;
2161;SDS011;1087;50.226;8.682;2022-11-20T08:57:33;46.00;;;26.20;;
2161;SDS011;1087;50.226;8.682;2022-11-20T08:59:59;42.93;;;25.77;;
2161;SDS011;1087;50.226;8.682;2022-11-20T09:02:25;34.10;;;20.53;;
2161;SDS011;1087;50.226;8.682;2022-11-20T09:04:50;35.67;;;21.53;;
2161;SDS011;1087;50.226;8.682;2022-11-20T09:07:16;34.30;;;21.60;;
2161;SDS011;1087;50.226;8.682;2022-11-20T09:09:42;32.30;;;19.03;;
2161;SDS011;1087;50.226;8.682;2022-11-20T09:12:07;36.13;;;22.17;;
2161;SDS011;1087;50.226;8.682;2022-11-20T09:14:33;35.33;;;21.93;;
2161;SDS011;1087;50.226;8.682;2022-11-20T09:16:58;38.60;;;22.10;;
2161;SDS011;1087;50.226;8.682;2022-11-20T09:19:24;31.50;;;20.53;;
2161;SDS011;1087;50.226;8.682;2022-11-20T09:21:50;34.37;;;21.53;;
2161;SDS011;1087;50.226;8.682;2022-11-20T09:24:15;30.93;;;18.60;;
2161;SDS011;1087;50.226;8.682;2022-11-20T09:26:41;33.30;;;20.47;;
2161;SDS011;1087;50.226;8.682;2022-11-20T09:29:06;26.20;;;16.20;;
2161;SDS011;1087;50.226;8.682;2022-11-20T09:31:32;27.10;;;16.87;;
2161;SDS011;1087;50.226;8.682;2022-11-20T09:33:57;26.37;;;17.10;;
2161;SDS011;1087;50.226;8.682;2022-11-20T09:36:23;28.07;;;18.20;;
2161;SDS011;1087;50.226;8.682;2022-11-20T09:38:49;30.83;;;16.30;;
2161;SDS011;1087;50.226;8.682;2022-11-20T09:41:19;26.33;;;15.37;;
2161;SDS011;1087;50.226;8.682;2022-11-20T09:47:23;29.17;;;17.83;;
2161;SDS011;1087;50.226;8.682;2022-11-20T09:50:01;35.80;;;19.37;;
2161;SDS011;1087;50.226;8.682;2022-11-20T09:52:47;31.70;;;17.00;;
2161;SDS011;1087;50.226;8.682;2022-11-20T09:55:24;32.13;;;18.87;;
2161;SDS011;1087;50.226;8.682;2022-11-20T09:57:51;31.70;;;17.70;;
2161;SDS011;1087;50.226;8.682;2022-11-20T10:00:17;29.53;;;18.97;;
2161;SDS011;1087;50.226;8.682;2022-11-20T10:03:02;34.37;;;19.07;;
2161;SDS011;1087;50.226;8.682;2022-11-20T10:05:43;40.00;;;23.00;;
2161;SDS011;1087;50.226;8.682;2022-11-20T10:08:22;43.40;;;22.40;;
2161;SDS011;1087;50.226;8.682;2022-11-20T10:11:11;37.13;;;21.73;;
2161;SDS011;1087;50.226;8.682;2022-11-20T10:16:50;36.50;;;21.60;;
2161;SDS011;1087;50.226;8.682;2022-11-20T10:19:47;38.13;;;22.77;;
2161;SDS011;1087;50.226;8.682;2022-11-20T10:25:11;38.10;;;21.80;;
2161;SDS011;1087;50.226;8.682;2022-11-20T10:30:12;32.17;;;19.47;;
2161;SDS011;1087;50.226;8.682;2022-11-20T10:32:41;32.73;;;21.87;;
2161;SDS011;1087;50.226;8.682;2022-11-20T10:37:55;38.87;;;22.30;;
2161;SDS011;1087;50.226;8.682;2022-11-20T10:40:27;33.80;;;20.90;;
2161;SDS011;1087;50.226;8.682;2022-11-20T10:43:01;33.07;;;18.30;;
2161;SDS011;1087;50.226;8.682;2022-11-20T10:45:39;41.10;;;27.40;;
2161;SDS011;1087;50.226;8.682;2022-11-20T10:48:26;34.70;;;21.77;;
2161;SDS011;1087;50.226;8.682;2022-11-20T10:56:41;31.87;;;18.77;;
2161;SDS011;1087;50.226;8.682;2022-11-20T11:01:59;66.70;;;35.30;;
2161;SDS011;1087;50.226;8.682;2022-11-20T11:04:38;35.37;;;19.67;;
2161;SDS011;1087;50.226;8.682;2022-11-20T11:07:15;36.43;;;22.87;;
2161;SDS011;1087;50.226;8.682;2022-11-20T11:09:55;42.97;;;25.20;;
2161;SDS011;1087;50.226;8.682;2022-11-20T11:12:22;43.40;;;25.00;;
2161;SDS011;1087;50.226;8.682;2022-11-20T11:14:53;34.80;;;19.20;;
2161;SDS011;1087;50.226;8.682;2022-11-20T11:17:23;32.87;;;19.97;;
2161;SDS011;1087;50.226;8.682;2022-11-20T11:22:30;33.27;;;20.30;;
2161;SDS011;1087;50.226;8.682;2022-11-20T11:24:57;39.90;;;27.43;;
2161;SDS011;1087;50.226;8.682;2022-11-20T11:27:24;35.50;;;24.27;;
2161;SDS011;1087;50.226;8.682;2022-11-20T11:29:49;32.73;;;19.77;;
2161;SDS011;1087;50.226;8.682;2022-11-20T11:32:26;32.57;;;18.00;;
2161;SDS011;1087;50.226;8.682;2022-11-20T11:34:58;32.70;;;19.50;;
2161;SDS011;1087;50.226;8.682;2022-11-20T11:37:25;40.93;;;29.40;;
2161;SDS011;1087;50.226;8.682;2022-11-20T11:40:00;50.33;;;33.10;;
2161;SDS011;1087;50.226;8.682;2022-11-20T11:42:27;37.10;;;26.57;;
2161;SDS011;1087;50.226;8.682;2022-11-20T11:44:54;33.67;;;21.60;;
2161;SDS011;1087;50.226;8.682;2022-11-20T11:47:34;35.53;;;21.00;;
2161;SDS011;1087;50.226;8.682;2022-11-20T11:55:40;27.97;;;16.43;;
2161;SDS011;1087;50.226;8.682;2022-11-20T11:58:11;30.73;;;17.63;;
2161;SDS011;1087;50.226;8.682;2022-11-20T12:01:03;28.17;;;17.90;;
2161;SDS011;1087;50.226;8.682;2022-11-20T12:03:36;31.50;;;17.63;;
2161;SDS011;1087;50.226;8.682;2022-11-20T12:06:13;25.67;;;16.07;;
2161;SDS011;1087;50.226;8.682;2022-11-20T12:08:44;24.77;;;16.87;;
2161;SDS011;1087;50.226;8.682;2022-11-20T12:11:24;27.07;;;17.20;;
2161;SDS011;1087;50.226;8.682;2022-11-20T12:16:49;33.70;;;18.77;;
2161;SDS011;1087;50.226;8.682;2022-11-20T12:19:15;24.37;;;15.50;;
2161;SDS011;1087;50.226;8.682;2022-11-20T12:30:17;37.60;;;21.43;;
2161;SDS011;1087;50.226;8.682;2022-11-20T12:38:58;39.33;;;22.20;;
2161;SDS011;1087;50.226;8.682;2022-11-20T12:44:35;84.10;;;45.80;;
2161;SDS011;1087;50.226;8.682;2022-11-20T12:52:46;36.43;;;20.10;;
2161;SDS011;1087;50.226;8.682;2022-11-20T12:55:20;51.00;;;28.57;;
2161;SDS011;1087;50.226;8.682;2022-11-20T12:58:17;56.93;;;36.77;;
2161;SDS011;1087;50.226;8.682;2022-11-20T13:00:58;49.90;;;28.53;;
2161;SDS011;1087;50.226;8.682;2022-11-20T13:03:37;48.60;;;28.77;;
2161;SDS011;1087;50.226;8.682;2022-11-20T13:06:18;43.30;;;25.13;;
2161;SDS011;1087;50.226;8.682;2022-11-20T13:08:47;42.47;;;26.83;;
2161;SDS011;1087;50.226;8.682;2022-11-20T13:11:23;42.23;;;28.17;;
2161;SDS011;1087;50.226;8.682;2022-11-20T13:19:54;42.10;;;27.25;;
2161;SDS011;1087;50.226;8.682;2022-11-20T13:22:24;39.50;;;26.77;;
2161;SDS011;1087;50.226;8.682;2022-11-20T13:24:54;46.90;;;29.07;;
2161;SDS011;1087;50.226;8.682;2022-11-20T13:27:23;46.70;;;29.93;;
2161;SDS011;1087;50.226;8.682;2022-11-20T13:29:58;38.20;;;23.80;;
2161;SDS011;1087;50.226;8.682;2022-11-20T13:32:47;34.70;;;20.07;;
2161;SDS011;1087;50.226;8.682;2022-11-20T13:35:25;40.93;;;24.60;;
2161;SDS011;1087;50.226;8.682;2022-11-20T13:37:59;39.20;;;26.30;;
2161;SDS011;1087;50.226;8.682;2022-11-20T13:40:30;41.33;;;25.80;;
2161;SDS011;1087;50.226;8.682;2022-11-20T13:43:14;39.73;;;25.03;;
2161;SDS011;1087;50.226;8.682;2022-11-20T13:45:54;43.73;;;26.10;;
2161;SDS011;1087;50.226;8.682;2022-11-20T13:48:29;38.63;;;22.90;;
2161;SDS011;1087;50.226;8.682;2022-11-20T14:02:13;40.40;;;26.50;;
2161;SDS011;1087;50.226;8.682;2022-11-20T14:04:45;68.30;;;40.93;;
2161;SDS011;1087;50.226;8.682;2022-11-20T14:07:13;61.87;;;39.70;;
2161;SDS011;1087;50.226;8.682;2022-11-20T14:09:48;53.40;;;31.67;;
2161;SDS011;1087;50.226;8.682;2022-11-20T14:12:16;41.87;;;25.67;;
2161;SDS011;1087;50.226;8.682;2022-11-20T14:14:47;38.00;;;24.33;;
2161;SDS011;1087;50.226;8.682;2022-11-20T14:17:30;40.97;;;23.93;;
2161;SDS011;1087;50.226;8.682;2022-11-20T14:20:01;41.03;;;23.63;;
2161;SDS011;1087;50.226;8.682;2022-11-20T14:22:32;44.63;;;25.07;;
2161;SDS011;1087;50.226;8.682;2022-11-20T14:27:39;39.40;;;23.57;;
2161;SDS011;1087;50.226;8.682;2022-11-20T14:30:16;43.83;;;25.87;;
2161;SDS011;1087;50.226;8.682;2022-11-20T14:32:44;38.07;;;23.53;;
2161;SDS011;1087;50.226;8.682;2022-11-20T14:35:21;41.80;;;26.27;;
2161;SDS011;1087;50.226;8.682;2022-11-20T14:37:51;44.40;;;27.43;;
2161;SDS011;1087;50.226;8.682;2022-11-20T14:40:31;48.73;;;29.00;;
2161;SDS011;1087;50.226;8.682;2022-11-20T14:43:00;56.40;;;29.50;;
2161;SDS011;1087;50.226;8.682;2022-11-20T14:45:26;49.87;;;28.23;;
2161;SDS011;1087;50.226;8.682;2022-11-20T14:47:53;43.07;;;26.67;;
2161;SDS011;1087;50.226;8.682;2022-11-20T14:50:25;66.10;;;35.53;;
2161;SDS011;1087;50.226;8.682;2022-11-20T14:52:59;50.70;;;28.90;;
2161;SDS011;1087;50.226;8.682;2022-11-20T14:55:32;51.97;;;29.53;;
2161;SDS011;1087;50.226;8.682;2022-11-20T14:58:01;50.57;;;27.77;;
2161;SDS011;1087;50.226;8.682;2022-11-20T15:00:29;53.77;;;29.63;;
2161;SDS011;1087;50.226;8.682;2022-11-20T15:02:56;51.03;;;30.97;;
2161;SDS011;1087;50.226;8.682;2022-11-20T15:05:23;51.30;;;28.60;;
2161;SDS011;1087;50.226;8.682;2022-11-20T15:08:08;49.20;;;28.40;;
2161;SDS011;1087;50.226;8.682;2022-11-20T15:10:35;46.27;;;28.87;;
2161;SDS011;1087;50.226;8.682;2022-11-20T15:13:05;44.40;;;25.27;;
2161;SDS011;1087;50.226;8.682;2022-11-20T15:15:39;48.93;;;24.43;;
2161;SDS011;1087;50.226;8.682;2022-11-20T15:18:18;45.20;;;25.33;;
2161;SDS011;1087;50.226;8.682;2022-11-20T15:20:46;55.40;;;28.77;;
2161;SDS011;1087;50.226;8.682;2022-11-20T15:23:13;48.03;;;28.53;;
2161;SDS011;1087;50.226;8.682;2022-11-20T15:25:40;40.50;;;24.70;;
2161;SDS011;1087;50.226;8.682;2022-11-20T15:28:17;44.70;;;26.10;;
2161;SDS011;1087;50.226;8.682;2022-11-20T15:30:46;49.43;;;26.83;;
2161;SDS011;1087;50.226;8.682;2022-11-20T15:33:13;47.37;;;24.90;;
2161;SDS011;1087;50.226;8.682;2022-11-20T15:35:39;45.47;;;26.03;;
2161;SDS011;1087;50.226;8.682;2022-11-20T15:38:05;44.37;;;26.97;;
2161;SDS011;1087;50.226;8.682;2022-11-20T15:40:31;48.20;;;26.33;;
2161;SDS011;1087;50.226;8.682;2022-11-20T15:42:57;43.40;;;26.00;;
2161;SDS011;1087;50.226;8.682;2022-11-20T15:45:51;44.27;;;27.07;;
2161;SDS011;1087;50.226;8.682;2022-11-20T15:48:17;43.90;;;26.10;;
2161;SDS011;1087;50.226;8.682;2022-11-20T15:53:22;46.07;;;26.60;;
2161;SDS011;1087;50.226;8.682;2022-11-20T15:55:47;43.90;;;26.07;;
2161;SDS011;1087;50.226;8.682;2022-11-20T15:58:13;40.80;;;24.77;;
2161;SDS011;1087;50.226;8.682;2022-11-20T16:00:39;45.30;;;27.20;;
2161;SDS011;1087;50.226;8.682;2022-11-20T16:03:05;41.43;;;24.43;;
2161;SDS011;1087;50.226;8.682;2022-11-20T16:05:30;45.90;;;25.80;;
2161;SDS011;1087;50.226;8.682;2022-11-20T16:07:56;38.47;;;24.00;;
2161;SDS011;1087;50.226;8.682;2022-11-20T16:10:22;40.30;;;24.27;;
2161;SDS011;1087;50.226;8.682;2022-11-20T16:12:48;46.07;;;26.87;;
2161;SDS011;1087;50.226;8.682;2022-11-20T16:15:32;43.97;;;26.23;;
2161;SDS011;1087;50.226;8.682;2022-11-20T16:18:11;45.93;;;28.03;;
2161;SDS011;1087;50.226;8.682;2022-11-20T16:20:38;44.13;;;28.97;;
2161;SDS011;1087;50.226;8.682;2022-11-20T16:23:04;43.00;;;27.20;;
2161;SDS011;1087;50.226;8.682;2022-11-20T16:25:30;46.53;;;28.97;;
2161;SDS011;1087;50.226;8.682;2022-11-20T16:27:56;45.90;;;26.70;;